Ramon, New Mexico
Current Conditions -  °F | °C
As of 9:56 AM on Thursday 27 Nov 2014 (Local Time) from K4MR Reporting Station
Clear Clear  
Wind Chill: 41°   Ceiling: Unl
Heat Index: 48°   Visibility: 10mi
Dew Point: 29°   Wind: 17mph
Humidity: 48%   Direction: 180°S
Pressure: 30.44"   Gusts: 25mph
Location:  34.3529°N, 104.601°W
Report Text: K4MR 271656Z AUTO 18015G22KT 10SM CLR 09/M02 A3044 RMK AO2 SLP310 T00871017
Loading
Personal Weather Stations






























Interactive Weather Map New forecast layout! Learn more

10-Day Weather Forecast

Advertisements
Track Severe Weather on mobile